Time;durP1;ratioP1;P1;durP2;ratioP2;P2;SDS_P1;SDS_P2;PMS_P1;PMS_P2;Temp;Humidity;BMP_temperature;BMP_pressure;BME280_temperature;BME280_humidity;BME280_pressure;Samples;Min_cycle;Max_cycle;Signal;HPM_P1;HPM_P2
2023/05/06 00:01:33;;;;;;;9.68;7.03;;;12.50;99.90;;;;;;4945962;28;20437;-90
2023/05/06 00:03:59;;;;;;;10.02;7.80;;;12.50;99.90;;;;;;4947468;28;20157;-90
2023/05/06 00:06:26;;;;;;;10.60;7.68;;;12.50;99.90;;;;;;4946508;28;20201;-91
2023/05/06 00:08:52;;;;;;;9.23;7.68;;;12.50;99.90;;;;;;4948472;28;20652;-91
2023/05/06 00:11:17;;;;;;;13.10;8.93;;;12.40;99.90;;;;;;4948585;28;20122;-91
2023/05/06 00:13:43;;;;;;;9.98;7.95;;;12.40;99.90;;;;;;4962797;28;20525;-91
2023/05/06 00:16:09;;;;;;;12.50;8.25;;;12.30;99.90;;;;;;4945683;28;20037;-90
2023/05/06 00:18:35;;;;;;;9.02;7.35;;;12.30;99.90;;;;;;4945560;28;20462;-91
2023/05/06 00:21:00;;;;;;;8.20;7.38;;;12.20;99.90;;;;;;4946642;28;20458;-91
2023/05/06 00:23:26;;;;;;;8.73;7.30;;;12.10;99.90;;;;;;4945613;28;20078;-91
2023/05/06 00:25:53;;;;;;;11.70;8.55;;;12.00;99.90;;;;;;4946911;28;20045;-91
2023/05/06 00:28:22;;;;;;;10.75;7.97;;;12.00;99.90;;;;;;4960480;28;20039;-91
2023/05/06 00:30:47;;;;;;;10.25;7.40;;;11.90;99.90;;;;;;4947518;28;20062;-92
2023/05/06 00:33:13;;;;;;;9.25;8.23;;;11.80;99.90;;;;;;4961826;28;20489;-91
2023/05/06 00:35:39;;;;;;;8.88;7.93;;;11.70;99.90;;;;;;4941167;28;20046;-91
2023/05/06 00:38:14;;;;;;;9.55;7.00;;;11.70;99.90;;;;;;4943755;28;20053;-91
2023/05/06 00:40:40;;;;;;;12.48;8.68;;;11.60;99.90;;;;;;4978624;28;20623;-90
2023/05/06 00:43:06;;;;;;;11.02;8.63;;;11.60;99.90;;;;;;4946305;28;20043;-91
2023/05/06 00:45:32;;;;;;;12.95;8.80;;;11.60;99.90;;;;;;4946287;28;20038;-92
2023/05/06 00:47:58;;;;;;;9.43;7.63;;;11.60;99.90;;;;;;4946196;28;20034;-92
2023/05/06 00:50:26;;;;;;;8.57;7.63;;;11.60;99.90;;;;;;4950239;28;20113;-91
2023/05/06 00:52:53;;;;;;;7.32;6.57;;;11.60;99.90;;;;;;4959277;28;20194;-92
2023/05/06 00:55:20;;;;;;;8.32;7.45;;;11.50;99.90;;;;;;4985924;28;20046;-91
2023/05/06 00:57:48;;;;;;;13.38;7.40;;;11.60;99.90;;;;;;4977784;28;20459;-91
2023/05/06 01:00:14;;;;;;;8.43;7.20;;;11.60;99.90;;;;;;4978190;28;20482;-92
2023/05/06 01:02:40;;;;;;;10.82;8.13;;;11.60;99.90;;;;;;4980327;28;20038;-92
2023/05/06 01:05:08;;;;;;;11.85;8.15;;;11.70;99.90;;;;;;4986594;28;20038;-90
2023/05/06 01:08:05;;;;;;;10.25;8.38;;;11.70;99.90;;;;;;4987408;28;20084;-92
2023/05/06 01:10:53;;;;;;;10.68;8.68;;;11.80;99.90;;;;;;4988515;28;20396;-91
2023/05/06 01:13:33;;;;;;;15.13;9.52;;;11.80;99.90;;;;;;4969911;28;20042;-92
2023/05/06 01:16:00;;;;;;;11.23;9.50;;;11.80;99.90;;;;;;4986663;28;20038;-90
2023/05/06 01:18:27;;;;;;;12.30;9.98;;;11.90;99.90;;;;;;4969092;28;20041;-91
2023/05/06 01:20:55;;;;;;;13.93;10.02;;;11.90;99.90;;;;;;4986298;28;21150;-90
2023/05/06 01:23:21;;;;;;;16.90;10.73;;;11.90;99.90;;;;;;4991019;28;20088;-91
2023/05/06 01:25:46;;;;;;;17.02;10.80;;;12.00;99.90;;;;;;4993462;28;20053;-91
2023/05/06 01:28:12;;;;;;;15.32;11.70;;;11.90;99.90;;;;;;4968306;28;20161;-90
2023/05/06 01:30:43;;;;;;;13.90;10.80;;;11.90;99.90;;;;;;4976192;28;20076;-90
2023/05/06 01:33:29;;;;;;;13.35;9.98;;;12.00;99.90;;;;;;4971722;28;20112;-91
2023/05/06 01:36:22;;;;;;;12.98;9.93;;;12.00;99.90;;;;;;4942625;28;20050;-90
2023/05/06 01:39:01;;;;;;;17.75;11.18;;;12.00;99.90;;;;;;4968622;28;20113;-92
2023/05/06 01:41:30;;;;;;;14.43;10.35;;;12.00;99.90;;;;;;4985546;28;20347;-91
2023/05/06 01:43:58;;;;;;;15.90;11.30;;;12.00;99.90;;;;;;4985140;28;20400;-91
2023/05/06 01:46:25;;;;;;;14.10;10.75;;;12.00;99.90;;;;;;4973378;28;20034;-90
2023/05/06 01:48:53;;;;;;;13.05;10.82;;;11.90;99.90;;;;;;4986287;28;20137;-91
2023/05/06 01:51:23;;;;;;;13.13;10.02;;;11.90;99.90;;;;;;4969792;28;20072;-90
2023/05/06 01:53:49;;;;;;;13.52;10.18;;;11.80;99.90;;;;;;4976062;28;20675;-91
2023/05/06 01:56:15;;;;;;;17.52;11.57;;;11.70;99.90;;;;;;4975428;28;20503;-92
2023/05/06 01:58:41;;;;;;;13.98;10.80;;;11.60;99.90;;;;;;4979587;28;20128;-90
2023/05/06 02:01:12;;;;;;;15.00;11.05;;;11.60;99.90;;;;;;4975852;28;20140;-92
2023/05/06 02:03:38;;;;;;;15.93;10.77;;;11.50;99.90;;;;;;4966545;28;20125;-91
2023/05/06 02:06:03;;;;;;;13.40;10.30;;;11.50;99.90;;;;;;4990676;28;20137;-91
2023/05/06 02:08:29;;;;;;;13.90;11.65;;;11.40;99.90;;;;;;4985117;28;20045;-91
2023/05/06 02:10:55;;;;;;;15.70;12.35;;;11.40;99.90;;;;;;4974848;28;20034;-91
2023/05/06 02:13:21;;;;;;;13.80;10.30;;;11.30;99.90;;;;;;4990225;28;20132;-91
2023/05/06 02:15:55;;;;;;;14.60;12.48;;;11.30;99.90;;;;;;4967792;28;20042;-90
2023/05/06 02:18:21;;;;;;;18.88;13.82;;;11.30;99.90;;;;;;4969532;28;20049;-91
2023/05/06 02:20:47;;;;;;;141.73;14.82;;;11.20;99.90;;;;;;4971342;28;20042;-91
2023/05/06 02:23:12;;;;;;;14.20;10.68;;;11.10;99.90;;;;;;4978667;28;20049;-91
2023/05/06 02:25:38;;;;;;;13.20;7.93;;;11.00;99.90;;;;;;4976079;28;20042;-91
2023/05/06 02:28:04;;;;;;;11.77;8.88;;;11.00;99.90;;;;;;4985181;28;20128;-91
2023/05/06 02:30:30;;;;;;;14.05;11.65;;;11.00;99.90;;;;;;4970897;28;20042;-91
2023/05/06 02:32:56;;;;;;;14.95;11.15;;;11.10;99.90;;;;;;4988311;28;20097;-90
2023/05/06 02:35:22;;;;;;;17.92;12.95;;;11.00;99.90;;;;;;4980620;28;20046;-89
2023/05/06 02:37:48;;;;;;;14.85;11.63;;;11.00;99.90;;;;;;4974134;28;20049;-90
2023/05/06 02:40:14;;;;;;;13.48;10.65;;;10.90;99.90;;;;;;4980273;28;20570;-91
2023/05/06 02:42:39;;;;;;;15.25;11.77;;;10.90;99.90;;;;;;4975411;28;20046;-91
2023/05/06 02:45:09;;;;;;;13.30;10.38;;;10.90;99.90;;;;;;4989637;28;20472;-91
2023/05/06 02:47:34;;;;;;;12.10;10.20;;;10.80;99.90;;;;;;4971356;28;20267;-91
2023/05/06 02:50:00;;;;;;;11.82;9.20;;;10.70;99.90;;;;;;4995216;28;20196;-92
2023/05/06 02:52:26;;;;;;;11.80;8.23;;;10.70;99.90;;;;;;4995764;28;20531;-90
2023/05/06 02:54:52;;;;;;;63.08;13.38;;;10.50;99.90;;;;;;4981220;28;20678;-91
2023/05/06 02:57:18;;;;;;;13.50;9.82;;;10.60;99.90;;;;;;5007743;28;20093;-91
2023/05/06 02:59:44;;;;;;;16.90;9.98;;;10.60;99.90;;;;;;4971083;28;20129;-91
2023/05/06 03:02:09;;;;;;;13.98;10.40;;;10.50;99.90;;;;;;4992290;28;20048;-91
2023/05/06 03:04:35;;;;;;;14.85;10.63;;;10.40;99.90;;;;;;5003469;28;20037;-91
2023/05/06 03:07:01;;;;;;;21.15;11.45;;;10.40;99.90;;;;;;4994512;28;20374;-91
2023/05/06 03:09:26;;;;;;;22.25;11.73;;;10.40;99.90;;;;;;4982357;28;20336;-92
2023/05/06 03:11:52;;;;;;;127.57;15.18;;;10.40;99.90;;;;;;4989558;28;20038;-91
2023/05/06 03:14:17;;;;;;;287.73;20.50;;;10.40;99.90;;;;;;4969594;28;20044;-91
2023/05/06 03:16:43;;;;;;;11.98;7.95;;;10.30;99.90;;;;;;4982763;28;20049;-92
2023/05/06 03:19:09;;;;;;;19.45;13.43;;;10.30;99.90;;;;;;4989121;28;20570;-90
2023/05/06 03:21:34;;;;;;;17.67;13.60;;;10.30;99.90;;;;;;4974097;28;20049;-91
2023/05/06 03:24:00;;;;;;;13.43;9.98;;;10.20;99.90;;;;;;4978682;28;20509;-92
2023/05/06 03:26:26;;;;;;;18.65;14.48;;;10.20;99.90;;;;;;4992257;28;20040;-91
2023/05/06 03:28:54;;;;;;;13.65;11.35;;;10.10;99.90;;;;;;4978109;28;20037;-91
2023/05/06 03:31:20;;;;;;;192.10;12.20;;;10.00;99.90;;;;;;4980112;28;20064;-91
2023/05/06 03:33:46;;;;;;;566.55;21.10;;;9.90;99.90;;;;;;4974047;28;20041;-90
2023/05/06 03:36:12;;;;;;;64.43;8.05;;;9.80;99.90;;;;;;4994501;28;20052;-90
2023/05/06 03:38:39;;;;;;;16.77;7.45;;;9.80;99.90;;;;;;4983361;28;20136;-91
2023/05/06 03:41:05;;;;;;;37.22;7.72;;;9.70;99.90;;;;;;4972981;28;20094;-92
2023/05/06 03:43:34;;;;;;;11.20;8.63;;;9.70;99.90;;;;;;4994679;28;20211;-90
2023/05/06 03:46:00;;;;;;;15.93;9.45;;;9.70;99.90;;;;;;4970194;28;20031;-90
2023/05/06 03:48:26;;;;;;;10.20;8.10;;;9.70;99.90;;;;;;4969860;28;20034;-90
2023/05/06 03:50:51;;;;;;;10.50;7.70;;;9.70;99.90;;;;;;4968447;28;20052;-91
2023/05/06 03:53:17;;;;;;;8.32;7.20;;;9.70;99.90;;;;;;4977886;28;20056;-90
2023/05/06 03:55:43;;;;;;;25.50;7.60;;;9.60;99.90;;;;;;4969247;28;20046;-90
2023/05/06 03:58:10;;;;;;;16.08;7.90;;;9.60;99.90;;;;;;4977466;28;20152;-90
2023/05/06 04:00:35;;;;;;;29.80;8.52;;;9.60;99.90;;;;;;4984966;28;20278;-91
2023/05/06 04:03:01;;;;;;;68.30;8.20;;;9.60;99.90;;;;;;4971030;28;20038;-91
2023/05/06 04:05:27;;;;;;;10.68;6.32;;;9.60;99.90;;;;;;4978924;28;20037;-91
2023/05/06 04:07:53;;;;;;;31.40;6.18;;;9.50;99.90;;;;;;4993410;28;20172;-90
2023/05/06 04:10:19;;;;;;;9.88;6.15;;;9.50;99.90;;;;;;4975539;28;20035;-89
2023/05/06 04:12:44;;;;;;;42.17;6.80;;;9.50;99.90;;;;;;4987402;28;20050;-91
2023/05/06 04:15:10;;;;;;;22.23;7.00;;;9.50;99.90;;;;;;4995258;28;20122;-90
2023/05/06 04:17:36;;;;;;;7.45;6.43;;;9.50;99.90;;;;;;4988452;28;20057;-91
2023/05/06 04:20:10;;;;;;;18.00;6.40;;;9.50;99.90;;;;;;4988458;28;20125;-90
2023/05/06 04:22:37;;;;;;;20.35;6.18;;;9.60;99.90;;;;;;4979373;28;20318;-90
2023/05/06 04:25:03;;;;;;;32.85;7.22;;;9.50;99.90;;;;;;4974423;28;20045;-92
2023/05/06 04:27:30;;;;;;;30.73;9.13;;;9.60;99.90;;;;;;4967280;28;20046;-91
2023/05/06 04:30:01;;;;;;;58.95;8.77;;;9.70;99.90;;;;;;4979297;28;20304;-90
2023/05/06 04:32:26;;;;;;;33.95;7.20;;;9.70;99.90;;;;;;4980411;28;20445;-90
2023/05/06 04:34:52;;;;;;;13.18;6.90;;;9.70;99.90;;;;;;4970059;28;20139;-91
2023/05/06 04:37:21;;;;;;;13.00;7.10;;;9.80;99.90;;;;;;4967767;28;20072;-90
2023/05/06 04:39:50;;;;;;;10.40;6.68;;;9.90;99.90;;;;;;5009037;28;20491;-90
2023/05/06 04:42:16;;;;;;;8.43;6.47;;;9.90;99.90;;;;;;5008084;28;20049;-90
2023/05/06 04:44:42;;;;;;;13.85;7.68;;;10.00;99.90;;;;;;4989706;28;20034;-90
2023/05/06 04:47:07;;;;;;;19.60;9.60;;;10.10;99.90;;;;;;4978616;28;20480;-90
2023/05/06 04:49:33;;;;;;;10.23;8.52;;;10.20;99.90;;;;;;4986714;28;20042;-90
2023/05/06 04:51:59;;;;;;;8.93;8.02;;;10.30;99.90;;;;;;4991356;28;20519;-91
2023/05/06 04:54:25;;;;;;;9.40;8.27;;;10.40;99.90;;;;;;4972215;28;20061;-89
2023/05/06 04:56:53;;;;;;;9.85;8.73;;;10.50;99.90;;;;;;4974777;28;20073;-90
2023/05/06 04:59:19;;;;;;;8.98;8.07;;;10.60;99.90;;;;;;4968448;28;20340;-89
2023/05/06 05:01:45;;;;;;;10.68;8.88;;;10.70;99.90;;;;;;4969374;28;20698;-89
2023/05/06 05:04:10;;;;;;;13.05;8.68;;;10.80;99.90;;;;;;4967627;28;20065;-90
2023/05/06 05:06:36;;;;;;;9.93;8.68;;;10.90;99.90;;;;;;4970677;28;20045;-90
2023/05/06 05:09:02;;;;;;;11.38;9.48;;;11.10;99.90;;;;;;4964963;28;20085;-90
2023/05/06 05:11:27;;;;;;;10.55;8.93;;;11.10;99.90;;;;;;4979776;28;20038;-90
2023/05/06 05:13:53;;;;;;;10.45;9.07;;;11.20;99.90;;;;;;4974502;28;20152;-91
2023/05/06 05:16:22;;;;;;;11.60;9.82;;;11.20;99.90;;;;;;4991773;28;20044;-90
2023/05/06 05:18:47;;;;;;;15.13;11.48;;;11.30;99.90;;;;;;4976085;28;20045;-90
2023/05/06 05:21:16;;;;;;;15.40;12.38;;;11.50;99.90;;;;;;4977201;28;20042;-90
2023/05/06 05:23:41;;;;;;;22.40;15.32;;;11.60;99.90;;;;;;4967804;28;20137;-91
2023/05/06 05:26:07;;;;;;;24.27;16.92;;;11.70;99.90;;;;;;4993522;28;20132;-90
2023/05/06 05:28:33;;;;;;;24.05;16.25;;;11.70;99.90;;;;;;4971613;28;20041;-90
2023/05/06 05:31:02;;;;;;;23.15;16.40;;;11.80;99.90;;;;;;4995794;28;20140;-90
2023/05/06 05:33:28;;;;;;;23.58;16.60;;;11.90;99.90;;;;;;4988047;28;20150;-90
2023/05/06 05:35:53;;;;;;;21.17;15.43;;;12.00;99.90;;;;;;4991026;28;20117;-90
2023/05/06 05:38:20;;;;;;;25.25;17.55;;;12.00;99.90;;;;;;4976673;28;21099;-90
2023/05/06 05:40:45;;;;;;;21.00;16.15;;;12.00;99.90;;;;;;4977220;28;20084;-90
2023/05/06 05:43:11;;;;;;;23.50;16.42;;;12.10;99.90;;;;;;4979826;28;20516;-90
2023/05/06 05:45:37;;;;;;;24.98;16.63;;;12.10;99.90;;;;;;4981458;28;20045;-91
2023/05/06 05:48:05;;;;;;;25.38;17.00;;;12.20;99.90;;;;;;4969609;28;20087;-91
2023/05/06 05:50:31;;;;;;;20.83;15.20;;;12.20;99.90;;;;;;4986932;28;20124;-90
2023/05/06 05:52:57;;;;;;;22.70;16.52;;;12.30;99.90;;;;;;4975538;28;20141;-90
2023/05/06 05:55:25;;;;;;;24.35;17.38;;;12.30;99.90;;;;;;4978024;28;20046;-90
2023/05/06 05:57:51;;;;;;;23.35;17.27;;;12.30;99.90;;;;;;4965321;28;20042;-90
2023/05/06 06:00:17;;;;;;;30.40;19.02;;;12.40;99.90;;;;;;4979781;28;20309;-90
2023/05/06 06:02:45;;;;;;;25.23;17.70;;;12.40;99.90;;;;;;4970875;28;20119;-91
2023/05/06 06:05:11;;;;;;;22.95;16.77;;;12.40;99.90;;;;;;4973941;28;20390;-90
2023/05/06 06:07:37;;;;;;;24.40;16.52;;;12.40;99.90;;;;;;4972454;28;20034;-91
2023/05/06 06:10:03;;;;;;;24.23;17.40;;;12.50;99.90;;;;;;4986116;28;20049;-90
2023/05/06 06:12:29;;;;;;;23.52;17.05;;;12.50;99.90;;;;;;4971885;28;20046;-90
2023/05/06 06:14:55;;;;;;;26.02;17.60;;;12.60;99.90;;;;;;4972898;28;20049;-90
2023/05/06 06:17:20;;;;;;;22.40;16.58;;;12.60;99.90;;;;;;4973459;28;20119;-90
2023/05/06 06:19:50;;;;;;;24.13;17.02;;;12.60;99.90;;;;;;4986437;28;20100;-90
2023/05/06 06:22:15;;;;;;;21.02;15.27;;;12.50;99.90;;;;;;4993264;28;20049;-90
2023/05/06 06:24:42;;;;;;;23.45;17.50;;;12.50;99.90;;;;;;4979809;28;20037;-90
2023/05/06 06:27:08;;;;;;;24.00;17.25;;;12.60;99.90;;;;;;4994632;28;20108;-90
2023/05/06 06:29:33;;;;;;;23.50;16.67;;;12.60;99.90;;;;;;4988222;28;20485;-90
2023/05/06 06:31:59;;;;;;;22.67;16.70;;;12.60;99.90;;;;;;4995010;28;20292;-90
2023/05/06 06:34:24;;;;;;;23.38;16.42;;;12.60;99.90;;;;;;4975510;28;20068;-90
2023/05/06 06:36:50;;;;;;;22.52;16.52;;;12.80;99.90;;;;;;4969742;28;20100;-90
2023/05/06 06:39:16;;;;;;;25.15;17.67;;;12.80;99.90;;;;;;4980936;28;20057;-90
2023/05/06 06:41:42;;;;;;;21.48;16.77;;;13.00;99.90;;;;;;4981240;28;20052;-90
2023/05/06 06:44:07;;;;;;;24.45;17.95;;;13.10;99.90;;;;;;4990491;28;20048;-90
2023/05/06 06:46:33;;;;;;;23.40;17.45;;;13.10;99.90;;;;;;4974717;28;20050;-90
2023/05/06 06:49:00;;;;;;;22.10;16.50;;;13.20;99.90;;;;;;4972424;28;20080;-90
2023/05/06 06:51:26;;;;;;;22.67;17.52;;;13.30;99.90;;;;;;4977952;28;20042;-89
2023/05/06 06:53:52;;;;;;;24.45;18.73;;;13.30;99.90;;;;;;4980146;28;20053;-90
2023/05/06 06:56:18;;;;;;;24.65;18.17;;;13.40;99.90;;;;;;4994543;28;20065;-89
2023/05/06 06:58:49;;;;;;;22.65;17.83;;;13.40;99.90;;;;;;4993685;28;20041;-90
2023/05/06 07:01:14;;;;;;;23.05;18.05;;;13.50;99.90;;;;;;4978731;28;20130;-89
2023/05/06 07:03:40;;;;;;;26.45;18.50;;;13.50;99.90;;;;;;4980180;28;20149;-89
2023/05/06 07:06:06;;;;;;;23.20;16.98;;;13.50;99.90;;;;;;4971897;28;20049;-89
2023/05/06 07:08:31;;;;;;;21.85;17.25;;;13.50;99.90;;;;;;4979275;28;20042;-90
2023/05/06 07:10:57;;;;;;;24.23;17.05;;;13.70;99.90;;;;;;4988145;28;20090;-89
2023/05/06 07:13:26;;;;;;;22.45;17.38;;;13.80;99.90;;;;;;4972681;28;20069;-89
2023/05/06 07:15:51;;;;;;;23.95;17.35;;;13.90;99.90;;;;;;4968692;28;20046;-89
2023/05/06 07:18:17;;;;;;;20.33;15.60;;;13.90;99.90;;;;;;4987568;28;20038;-89
2023/05/06 07:20:43;;;;;;;19.85;15.73;;;14.00;99.90;;;;;;4967098;28;20038;-89
2023/05/06 07:23:08;;;;;;;20.67;16.35;;;14.10;99.90;;;;;;4972116;28;20510;-89
2023/05/06 07:25:34;;;;;;;22.33;16.70;;;14.10;99.90;;;;;;4991603;28;20034;-89
2023/05/06 07:28:00;;;;;;;22.52;16.55;;;14.30;99.90;;;;;;4966702;28;20062;-88
2023/05/06 07:30:25;;;;;;;21.58;16.42;;;14.20;99.90;;;;;;4975601;28;20049;-89
2023/05/06 07:32:54;;;;;;;22.02;16.05;;;14.30;99.90;;;;;;4992783;28;20376;-90
2023/05/06 07:35:19;;;;;;;20.33;16.13;;;14.20;99.90;;;;;;4991272;28;20049;-89
2023/05/06 07:37:45;;;;;;;18.52;15.73;;;14.40;99.90;;;;;;4976604;28;20038;-90
2023/05/06 07:40:11;;;;;;;22.75;17.33;;;14.60;99.90;;;;;;4989480;28;20402;-89
2023/05/06 07:42:39;;;;;;;20.73;15.82;;;14.80;99.90;;;;;;4979379;28;20045;-89
2023/05/06 07:45:05;;;;;;;18.25;14.82;;;14.90;99.90;;;;;;4975545;28;20472;-90
2023/05/06 07:47:35;;;;;;;21.02;17.08;;;15.00;99.90;;;;;;4972707;28;20046;-89
2023/05/06 07:50:06;;;;;;;21.27;16.50;;;15.10;99.90;;;;;;4985693;28;20052;-90
2023/05/06 07:52:38;;;;;;;21.95;17.35;;;15.30;99.90;;;;;;4970358;28;20491;-90
2023/05/06 07:55:04;;;;;;;23.13;17.75;;;15.20;99.90;;;;;;4972895;28;20049;-90
2023/05/06 07:57:30;;;;;;;24.45;18.42;;;15.40;99.90;;;;;;4984474;28;20163;-88
2023/05/06 07:59:57;;;;;;;25.35;18.10;;;15.50;99.90;;;;;;4968389;28;20068;-93
2023/05/06 08:02:23;;;;;;;21.02;16.77;;;15.60;99.90;;;;;;4991518;28;20373;-93
2023/05/06 08:04:48;;;;;;;18.42;15.23;;;15.60;99.90;;;;;;4969342;28;20045;-92
2023/05/06 08:07:14;;;;;;;20.70;15.50;;;15.70;99.90;;;;;;4976278;28;20037;-90
2023/05/06 08:09:43;;;;;;;19.15;14.93;;;15.60;99.90;;;;;;4977310;28;20381;-90
2023/05/06 08:12:09;;;;;;;20.35;15.68;;;15.90;99.90;;;;;;4976232;28;20038;-91
2023/05/06 08:14:35;;;;;;;17.90;14.95;;;15.70;99.90;;;;;;4988967;28;20037;-90
2023/05/06 08:17:01;;;;;;;18.13;13.45;;;16.10;99.90;;;;;;4988779;28;20836;-91
2023/05/06 08:19:27;;;;;;;17.77;13.77;;;15.90;99.90;;;;;;4991313;28;20409;-92
2023/05/06 08:21:53;;;;;;;15.45;12.27;;;16.30;99.90;;;;;;4977825;28;20049;-90
2023/05/06 08:24:22;;;;;;;21.33;14.32;;;16.50;99.90;;;;;;4973824;28;20141;-89
2023/05/06 08:26:48;;;;;;;17.25;12.75;;;16.70;99.90;;;;;;4976668;28;20049;-90
2023/05/06 08:29:14;;;;;;;15.10;11.65;;;16.70;99.90;;;;;;4975118;28;20485;-90
2023/05/06 08:31:40;;;;;;;12.18;10.05;;;17.00;99.90;;;;;;4984842;28;20048;-89
2023/05/06 08:34:06;;;;;;;20.73;10.88;;;17.20;99.90;;;;;;4991660;28;20042;-90
2023/05/06 08:36:31;;;;;;;12.55;9.57;;;17.20;99.90;;;;;;4977268;28;20151;-91
2023/05/06 08:38:57;;;;;;;10.60;8.98;;;17.00;99.90;;;;;;4991195;28;20148;-90
2023/05/06 08:41:27;;;;;;;10.43;8.23;;;17.50;99.90;;;;;;4986747;28;20049;-91
2023/05/06 08:43:57;;;;;;;13.13;9.85;;;17.60;99.90;;;;;;4977128;28;20113;-91
2023/05/06 08:46:23;;;;;;;15.45;9.68;;;17.70;99.90;;;;;;4975907;28;20095;-92
2023/05/06 08:48:48;;;;;;;14.25;9.93;;;17.80;99.90;;;;;;4974750;28;20038;-92
2023/05/06 08:51:17;;;;;;;11.43;8.80;;;18.00;99.90;;;;;;4989251;28;20056;-90
2023/05/06 08:53:47;;;;;;;13.50;8.68;;;17.80;99.90;;;;;;4984459;28;20101;-92
2023/05/06 08:56:15;;;;;;;37.60;17.13;;;18.10;99.90;;;;;;4975840;28;20034;-91
2023/05/06 08:58:46;;;;;;;32.83;16.10;;;18.10;99.90;;;;;;4983038;28;20044;-92
2023/05/06 09:01:13;;;;;;;12.10;9.65;;;18.20;99.90;;;;;;4993386;28;20069;-92
2023/05/06 09:03:39;;;;;;;12.85;9.82;;;18.40;99.90;;;;;;4988904;28;20050;-91
2023/05/06 09:06:12;;;;;;;14.32;10.60;;;18.50;99.90;;;;;;4973947;28;20464;-91
2023/05/06 09:08:40;;;;;;;10.70;9.20;;;18.50;99.90;;;;;;4967218;28;20126;-92
2023/05/06 09:11:29;;;;;;;10.40;8.73;;;18.50;99.90;;;;;;4992864;28;20636;-91
2023/05/06 09:14:13;;;;;;;10.48;8.95;;;18.60;99.90;;;;;;4986221;28;20049;-90
2023/05/06 09:16:44;;;;;;;9.52;8.48;;;18.60;99.90;;;;;;4967624;28;20077;-91
2023/05/06 09:19:13;;;;;;;8.38;7.30;;;18.80;99.90;;;;;;4973664;28;20411;-93
2023/05/06 09:21:44;;;;;;;9.27;7.50;;;18.80;99.90;;;;;;4973328;28;20041;-91
2023/05/06 09:24:12;;;;;;;9.18;7.82;;;19.10;99.90;;;;;;4972648;28;20041;-91
2023/05/06 09:26:40;;;;;;;8.40;6.22;;;19.30;99.90;;;;;;4971051;28;20037;-92
2023/05/06 09:29:06;;;;;;;9.98;6.32;;;19.50;99.90;;;;;;4991123;28;20041;-93
2023/05/06 09:31:41;;;;;;;8.75;6.10;;;19.40;99.90;;;;;;4986954;28;20476;-91
2023/05/06 09:34:07;;;;;;;7.28;5.93;;;19.60;99.90;;;;;;4964919;28;20038;-91
2023/05/06 09:36:32;;;;;;;6.45;5.05;;;19.90;99.90;;;;;;4971061;28;20107;-91
2023/05/06 09:38:58;;;;;;;7.47;5.40;;;19.80;99.90;;;;;;4973850;28;20062;-90
2023/05/06 09:41:27;;;;;;;6.95;5.10;;;20.00;99.90;;;;;;4973719;28;20042;-91
2023/05/06 09:43:53;;;;;;;7.05;4.60;;;19.90;99.90;;;;;;4988633;28;20038;-91
2023/05/06 09:46:23;;;;;;;6.43;4.50;;;20.20;99.90;;;;;;4987959;28;20030;-91
2023/05/06 09:48:54;;;;;;;5.93;4.80;;;20.20;99.90;;;;;;4999923;28;20049;-93
2023/05/06 09:51:20;;;;;;;8.15;6.10;;;19.90;99.90;;;;;;4986797;28;20066;-91
2023/05/06 09:53:46;;;;;;;8.98;6.22;;;19.80;99.90;;;;;;4982734;28;20132;-91
2023/05/06 09:56:15;;;;;;;10.95;5.63;;;20.30;99.90;;;;;;4948337;28;20405;-92
2023/05/06 09:58:42;;;;;;;9.30;6.05;;;20.20;99.90;;;;;;4982418;28;20166;-92
2023/05/06 10:01:08;;;;;;;9.02;6.20;;;20.10;99.90;;;;;;4950861;28;20429;-92
2023/05/06 10:03:35;;;;;;;10.05;6.53;;;20.00;99.90;;;;;;4949722;28;20201;-90
2023/05/06 10:06:01;;;;;;;6.55;5.57;;;20.30;99.90;;;;;;4951181;28;20034;-90
2023/05/06 10:08:28;;;;;;;11.23;6.40;;;20.70;99.90;;;;;;4968298;28;20113;-91
2023/05/06 10:10:54;;;;;;;9.20;6.43;;;20.40;99.90;;;;;;4951210;28;20144;-90
2023/05/06 10:13:23;;;;;;;9.13;6.60;;;20.70;99.90;;;;;;4964290;28;20066;-90
2023/05/06 10:15:49;;;;;;;8.50;6.68;;;20.50;99.90;;;;;;4948870;28;20038;-90
2023/05/06 10:18:19;;;;;;;7.53;6.45;;;20.70;99.90;;;;;;4947841;28;20631;-90
2023/05/06 10:20:46;;;;;;;8.00;6.40;;;21.20;99.90;;;;;;4966632;28;20127;-90
2023/05/06 10:23:19;;;;;;;7.18;6.00;;;21.20;99.90;;;;;;4948267;28;20127;-90
2023/05/06 10:25:46;;;;;;;9.85;6.75;;;21.40;99.90;;;;;;4964124;28;20212;-88
2023/05/06 10:28:15;;;;;;;8.18;6.82;;;20.60;99.90;;;;;;4963794;28;20050;-89
2023/05/06 10:30:43;;;;;;;8.32;6.82;;;21.70;99.90;;;;;;4963681;28;20054;-88
2023/05/06 10:33:10;;;;;;;9.25;7.03;;;21.50;99.90;;;;;;4950207;28;20081;-90
2023/05/06 10:35:45;;;;;;;10.38;7.45;;;21.50;99.90;;;;;;4947651;28;20057;-90
2023/05/06 10:38:17;;;;;;;9.13;7.00;;;20.60;99.90;;;;;;4945960;28;20309;-90
2023/05/06 10:40:44;;;;;;;9.15;7.07;;;20.40;99.90;;;;;;4948013;28;20225;-90
2023/05/06 10:43:22;;;;;;;9.93;6.72;;;20.30;99.90;;;;;;4946609;28;20126;-88
2023/05/06 10:46:05;;;;;;;8.38;6.57;;;20.40;99.90;;;;;;4969558;28;20036;-89
2023/05/06 10:48:32;;;;;;;9.00;6.68;;;19.90;99.90;;;;;;4963207;28;20042;-90
2023/05/06 10:51:16;;;;;;;8.88;6.60;;;19.70;99.90;;;;;;4946143;28;20128;-89
2023/05/06 10:54:03;;;;;;;9.65;7.70;;;19.70;99.90;;;;;;4964560;28;20054;-89
2023/05/06 10:56:31;;;;;;;7.47;6.65;;;19.80;99.90;;;;;;4977358;28;20080;-89
2023/05/06 10:59:02;;;;;;;8.80;6.68;;;20.10;99.90;;;;;;4992576;28;20128;-90
2023/05/06 11:01:28;;;;;;;10.52;8.15;;;20.50;99.90;;;;;;4979236;28;20379;-89
2023/05/06 11:03:54;;;;;;;10.25;7.82;;;20.30;99.90;;;;;;4974114;28;20141;-90
2023/05/06 11:06:49;;;;;;;9.52;8.32;;;20.30;99.90;;;;;;4992308;28;20037;-89
2023/05/06 11:09:24;;;;;;;10.23;8.55;;;20.50;99.90;;;;;;4984434;28;20113;-90
2023/05/06 11:12:00;;;;;;;10.77;8.23;;;20.40;99.90;;;;;;4976249;28;20037;-88
2023/05/06 11:14:34;;;;;;;11.50;9.25;;;20.70;99.90;;;;;;4970608;28;20132;-89
2023/05/06 11:17:04;;;;;;;12.05;9.95;;;20.60;99.90;;;;;;4971312;28;20048;-90
2023/05/06 11:19:31;;;;;;;10.73;9.63;;;20.80;99.90;;;;;;4972061;28;20501;-89
2023/05/06 11:21:59;;;;;;;13.57;9.95;;;21.00;99.90;;;;;;4975751;28;20046;-89
2023/05/06 11:24:38;;;;;;;14.38;10.93;;;21.00;99.90;;;;;;4990492;28;20046;-89
2023/05/06 11:27:04;;;;;;;13.18;10.57;;;20.40;99.90;;;;;;4972153;28;20128;-89
2023/05/06 11:29:30;;;;;;;12.75;11.45;;;20.40;99.90;;;;;;4979956;28;20100;-89
2023/05/06 11:31:56;;;;;;;16.10;10.85;;;20.40;99.90;;;;;;4976061;28;20125;-90
2023/05/06 11:34:23;;;;;;;13.25;11.82;;;20.60;99.90;;;;;;4985469;28;20112;-89
2023/05/06 11:36:57;;;;;;;13.38;11.70;;;20.60;99.90;;;;;;4975320;28;20064;-90
2023/05/06 11:39:28;;;;;;;13.55;11.55;;;20.80;99.90;;;;;;4970777;28;20053;-89
2023/05/06 11:41:57;;;;;;;15.35;11.95;;;20.70;99.90;;;;;;4992840;28;20431;-90
2023/05/06 11:44:25;;;;;;;14.18;12.48;;;20.80;99.90;;;;;;4976336;28;20460;-90
2023/05/06 11:46:51;;;;;;;14.38;12.85;;;20.50;99.90;;;;;;4974248;28;20053;-89
2023/05/06 11:49:17;;;;;;;15.65;11.98;;;20.40;99.90;;;;;;4968130;28;20045;-89
2023/05/06 11:51:42;;;;;;;13.40;12.00;;;21.00;99.90;;;;;;4972527;28;20038;-90
2023/05/06 11:54:09;;;;;;;15.13;12.50;;;20.80;99.90;;;;;;4989371;28;20056;-90
2023/05/06 11:56:50;;;;;;;14.20;11.48;;;20.50;99.90;;;;;;4987744;28;20103;-91
2023/05/06 11:59:17;;;;;;;15.55;11.73;;;20.50;99.90;;;;;;4978136;28;20050;-90
2023/05/06 12:01:44;;;;;;;16.33;13.18;;;20.30;99.90;;;;;;4970091;28;20294;-91
2023/05/06 12:04:11;;;;;;;14.20;12.30;;;20.40;99.90;;;;;;4975864;28;20046;-90
2023/05/06 12:06:38;;;;;;;17.42;12.40;;;20.30;99.90;;;;;;5007382;28;20046;-91
2023/05/06 12:09:06;;;;;;;17.08;12.82;;;20.00;99.90;;;;;;4972534;28;20480;-91
2023/05/06 12:11:41;;;;;;;16.20;13.18;;;20.00;99.90;;;;;;4978429;28;20501;-90
2023/05/06 12:14:08;;;;;;;17.33;13.48;;;19.80;99.90;;;;;;4977416;28;20046;-90
2023/05/06 12:16:38;;;;;;;15.80;13.55;;;19.70;99.90;;;;;;4973476;28;20132;-91
2023/05/06 12:19:09;;;;;;;15.93;13.35;;;19.60;99.90;;;;;;4986135;28;20084;-91
2023/05/06 12:21:38;;;;;;;17.80;13.05;;;19.20;99.90;;;;;;4969377;28;20146;-90
2023/05/06 12:24:05;;;;;;;16.95;13.40;;;19.10;99.90;;;;;;4972570;28;20046;-91
2023/05/06 12:26:45;;;;;;;19.95;13.68;;;18.90;99.90;;;;;;4978240;28;20056;-90
2023/05/06 12:29:14;;;;;;;17.58;14.85;;;18.70;99.90;;;;;;4986107;28;20038;-92
2023/05/06 12:31:41;;;;;;;13.40;12.00;;;18.70;99.90;;;;;;4983112;28;20052;-90
2023/05/06 12:34:07;;;;;;;14.10;11.23;;;18.00;99.90;;;;;;4988352;28;20552;-90
2023/05/06 12:36:39;;;;;;;14.80;9.73;;;16.80;99.90;;;;;;4976088;28;20109;-89
2023/05/06 12:39:18;;;;;;;10.07;7.38;;;15.70;99.90;;;;;;5102124;27;20396;-89